Time;durP1;ratioP1;P1;durP2;ratioP2;P2;SDS_P1;SDS_P2;PMS_P1;PMS_P2;Temp;Humidity;BMP_temperature;BMP_pressure;BME280_temperature;BME280_humidity;BME280_pressure;Samples;Min_cycle;Max_cycle;Signal;HPM_P1;HPM_P2
2022/01/12 00:00:39;;;;;;;44.15;41.05;;;;;;;-2.87;100.00;102323.69;5039240;28;20107;-80
2022/01/12 00:03:10;;;;;;;45.58;42.20;;;;;;;-2.70;100.00;102328.00;5038996;28;20547;-80
2022/01/12 00:05:37;;;;;;;42.00;39.05;;;;;;;-2.39;100.00;102327.22;5065698;28;20114;-80
2022/01/12 00:08:05;;;;;;;42.92;39.90;;;;;;;-2.04;100.00;102328.81;5062757;28;20057;-82
2022/01/12 00:10:31;;;;;;;41.00;38.20;;;;;;;-2.31;100.00;102337.22;5064821;28;20049;-80
2022/01/12 00:12:58;;;;;;;46.22;43.15;;;;;;;-2.66;100.00;102332.13;5066748;28;20053;-79
2022/01/12 00:15:25;;;;;;;44.13;41.08;;;;;;;-2.36;100.00;102345.28;5066809;28;20118;-79
2022/01/12 00:17:52;;;;;;;46.00;42.92;;;;;;;-2.93;100.00;102354.38;5062663;28;20129;-80
2022/01/12 00:20:20;;;;;;;45.80;42.65;;;;;;;-2.72;100.00;102353.28;5056541;28;20107;-79
2022/01/12 00:22:47;;;;;;;45.83;42.75;;;;;;;-2.45;100.00;102350.13;5064187;28;20045;-81
2022/01/12 00:25:27;;;;;;;42.65;39.88;;;;;;;-1.28;100.00;102352.31;5064799;28;20110;-81
2022/01/12 00:33:23;;;;;;;44.08;40.97;;;;;;;-2.25;100.00;102365.50;5063413;28;20047;-79
2022/01/12 00:35:52;;;;;;;44.92;41.30;;;;;;;-2.87;100.00;102367.91;5055581;28;20056;-79
2022/01/12 00:38:20;;;;;;;42.45;39.47;;;;;;;-2.70;100.00;102359.22;5063530;28;20508;-80
2022/01/12 00:40:50;;;;;;;44.95;41.63;;;;;;;-2.49;100.00;102359.84;5058796;28;20048;-80
2022/01/12 00:43:18;;;;;;;42.70;39.72;;;;;;;-2.35;100.00;102364.34;5065907;28;20456;-80
2022/01/12 00:45:46;;;;;;;44.28;41.08;;;;;;;-2.65;100.00;102367.63;5064101;28;20053;-80
2022/01/12 00:48:14;;;;;;;43.65;40.22;;;;;;;-2.39;100.00;102361.06;5060797;28;20397;-81
2022/01/12 00:50:41;;;;;;;43.28;40.20;;;;;;;-2.25;100.00;102356.88;5073721;28;20056;-79
2022/01/12 00:53:10;;;;;;;43.28;40.17;;;;;;;-2.59;100.00;102356.91;5065892;28;20052;-79
2022/01/12 00:55:38;;;;;;;42.63;39.70;;;;;;;-2.09;100.00;102349.91;5065260;28;20040;-80
2022/01/12 00:58:05;;;;;;;45.55;42.05;;;;;;;-2.34;100.00;102350.38;5070600;28;20053;-80
2022/01/12 01:00:32;;;;;;;42.15;39.45;;;;;;;-1.19;100.00;102351.78;5057741;28;20111;-81
2022/01/12 01:02:59;;;;;;;45.10;41.80;;;;;;;-2.43;100.00;102349.13;5066457;28;20126;-83
2022/01/12 01:05:29;;;;;;;44.67;41.08;;;;;;;-2.33;100.00;102352.06;5066903;28;20551;-80
2022/01/12 01:07:56;;;;;;;44.63;41.28;;;;;;;-2.77;100.00;102347.44;5065786;28;20485;-80
2022/01/12 01:10:31;;;;;;;43.97;40.75;;;;;;;-2.93;100.00;102347.41;5068079;28;20044;-80
2022/01/12 01:12:58;;;;;;;45.00;41.40;;;;;;;-2.64;100.00;102343.28;5069910;28;20059;-81
2022/01/12 01:15:41;;;;;;;45.13;41.95;;;;;;;-2.63;100.00;102354.53;5065208;28;20063;-81
2022/01/12 01:26:23;;;;;;;44.83;41.53;;;;;;;-2.22;100.00;102351.50;5055373;28;20055;-81
2022/01/12 01:28:50;;;;;;;45.30;41.90;;;;;;;-2.85;100.00;102360.84;5070958;28;20118;-81
2022/01/12 01:31:19;;;;;;;45.03;41.58;;;;;;;-2.23;100.00;102360.25;5073212;28;20049;-81
2022/01/12 01:33:46;;;;;;;42.22;39.33;;;;;;;-2.09;100.00;102366.38;5064253;28;20483;-81
2022/01/12 01:36:15;;;;;;;44.63;41.00;;;;;;;-2.07;100.00;102359.31;5065798;28;20056;-80
2022/01/12 01:38:43;;;;;;;43.60;40.50;;;;;;;-2.27;100.00;102362.13;5069309;28;20209;-80
2022/01/12 01:41:10;;;;;;;46.33;43.03;;;;;;;-2.27;100.00;102374.31;5065918;28;20135;-80
2022/01/12 01:43:54;;;;;;;42.67;39.72;;;;;;;-0.79;100.00;102370.28;5064649;28;20117;-81
2022/01/12 01:54:32;;;;;;;43.20;40.25;;;;;;;-2.72;100.00;102378.41;5062910;28;20099;-80
2022/01/12 01:56:59;;;;;;;41.35;38.65;;;;;;;-3.22;100.00;102369.66;5069135;28;20115;-81
2022/01/12 01:59:27;;;;;;;44.20;41.40;;;;;;;-3.36;100.00;102366.91;5067624;28;20531;-81
2022/01/12 02:01:54;;;;;;;42.90;40.20;;;;;;;-3.03;100.00;102386.00;5072444;28;20542;-81
2022/01/12 02:04:21;;;;;;;41.40;38.55;;;;;;;-1.49;100.00;102386.50;5074363;28;20570;-81
2022/01/12 02:06:47;;;;;;;42.50;39.80;;;;;;;-3.28;100.00;102376.00;5073839;28;20048;-81
2022/01/12 02:09:16;;;;;;;41.15;38.60;;;;;;;-2.32;100.00;102380.63;5068588;28;20107;-81
2022/01/12 02:11:43;;;;;;;43.15;40.38;;;;;;;-3.06;100.00;102386.16;5063043;28;20539;-81
2022/01/12 02:14:12;;;;;;;43.03;40.13;;;;;;;-2.94;100.00;102389.06;5059054;28;20479;-81
2022/01/12 02:16:51;;;;;;;41.42;38.72;;;;;;;-2.66;100.00;102397.16;5059596;28;20135;-79
2022/01/12 02:19:41;;;;;;;42.67;39.88;;;;;;;-3.29;100.00;102387.31;5063608;28;20053;-80
2022/01/12 02:35:54;;;;;;;43.33;40.25;;;;;;;-3.48;100.00;102405.56;5057217;28;20103;-82
2022/01/12 02:41:07;;;;;;;43.60;40.70;;;;;;;-3.34;100.00;102406.66;5062031;28;20055;-80
2022/01/12 02:50:36;;;;;;;43.78;41.13;;;;;;;-3.30;100.00;102410.78;5063590;28;20131;-81
2022/01/12 02:54:41;;;;;;;41.38;38.53;;;;;;;-3.18;100.00;102424.94;5066581;28;20501;-80
2022/01/12 02:57:08;;;;;;;40.60;38.03;;;;;;;-3.64;100.00;102419.34;5063592;28;20053;-80
2022/01/12 02:59:35;;;;;;;41.97;39.28;;;;;;;-3.43;100.00;102418.31;5063816;28;20045;-81
2022/01/12 03:02:19;;;;;;;43.08;40.08;;;;;;;-3.52;100.00;102422.19;5161464;23;20048;-81
2022/01/12 03:05:00;;;;;;;43.22;40.53;;;;;;;-3.60;100.00;102421.75;5064587;28;20056;-80
2022/01/12 03:07:31;;;;;;;41.55;39.10;;;;;;;-2.51;100.00;102429.38;5062830;28;20065;-81
2022/01/12 03:09:59;;;;;;;45.80;42.92;;;;;;;-3.14;100.00;102427.31;5063872;28;20048;-80
2022/01/12 03:12:25;;;;;;;46.88;44.17;;;;;;;-3.10;100.00;102426.25;5062607;28;20048;-80
2022/01/12 03:14:52;;;;;;;44.42;41.72;;;;;;;-3.53;100.00;102423.13;5060889;28;20049;-82
2022/01/12 03:17:20;;;;;;;47.25;44.55;;;;;;;-3.63;100.00;102421.88;5065354;28;20041;-79
2022/01/12 03:19:47;;;;;;;46.38;43.83;;;;;;;-3.22;100.00;102429.44;5062307;28;20119;-80
2022/01/12 03:22:14;;;;;;;43.38;40.92;;;;;;;-2.25;100.00;102430.59;5059319;28;20048;-81
2022/01/12 03:24:42;;;;;;;44.00;41.40;;;;;;;-3.69;100.00;102429.97;5066496;28;20113;-80
2022/01/12 03:27:14;;;;;;;45.35;42.85;;;;;;;-1.04;100.00;102423.91;5062986;28;20548;-81
2022/01/12 03:29:42;;;;;;;46.75;44.25;;;;;;;-3.24;100.00;102433.84;5063201;28;20045;-81
2022/01/12 03:32:11;;;;;;;42.08;39.88;;;;;;;-2.14;100.00;102436.09;5062170;28;20053;-84
2022/01/12 03:34:40;;;;;;;46.42;43.63;;;;;;;-3.24;100.00;102426.06;5060592;28;20106;-81
2022/01/12 03:37:28;;;;;;;43.75;41.25;;;;;;;-3.20;100.00;102432.81;5059186;28;20092;-81
2022/01/12 03:39:55;;;;;;;45.50;42.90;;;;;;;-3.39;100.00;102437.19;5063647;28;20413;-81
2022/01/12 03:42:23;;;;;;;44.85;42.25;;;;;;;-3.25;100.00;102442.59;5066288;28;20105;-82
2022/01/12 03:44:50;;;;;;;44.45;41.90;;;;;;;-3.08;100.00;102453.00;5061281;28;20053;-83
2022/01/12 03:47:17;;;;;;;44.58;42.17;;;;;;;-3.29;100.00;102443.66;5062834;28;20122;-79
2022/01/12 03:49:44;;;;;;;45.13;42.72;;;;;;;-2.43;100.00;102448.00;5059417;28;20496;-81
2022/01/12 03:52:11;;;;;;;49.85;47.08;;;;;;;-3.56;100.00;102449.25;5063187;28;20465;-80
2022/01/12 03:54:38;;;;;;;51.63;48.63;;;;;;;-3.73;100.00;102451.78;5060101;28;20550;-81
2022/01/12 03:57:05;;;;;;;50.40;47.72;;;;;;;-2.21;100.00;102452.09;5064663;28;20056;-80
2022/01/12 03:59:34;;;;;;;49.80;47.08;;;;;;;-2.76;100.00;102446.19;5063283;28;20053;-80
2022/01/12 04:02:00;;;;;;;49.05;46.38;;;;;;;-2.98;100.00;102463.78;5060087;28;20057;-80
2022/01/12 04:04:34;;;;;;;47.28;44.58;;;;;;;-3.66;100.00;102452.31;5064421;28;20053;-81
2022/01/12 04:09:46;;;;;;;46.88;44.15;;;;;;;-3.84;100.00;102452.28;5059031;28;20048;-80
2022/01/12 04:12:13;;;;;;;44.15;41.55;;;;;;;-3.61;100.00;102459.00;5062342;28;20130;-81
2022/01/12 04:14:41;;;;;;;44.85;42.05;;;;;;;-3.63;100.00;102454.78;5062552;28;20132;-80
2022/01/12 04:17:08;;;;;;;47.03;44.22;;;;;;;-3.88;100.00;102457.69;5064330;28;20107;-81
2022/01/12 04:19:36;;;;;;;44.63;41.92;;;;;;;-3.49;100.00;102452.38;5062221;28;20394;-81
2022/01/12 04:23:16;;;;;;;48.95;45.58;;;;;;;-3.14;100.00;102461.13;5062811;28;20057;-80
2022/01/12 04:24:53;;;;;;;47.95;44.97;;;;;;;-3.80;100.00;102463.38;5066794;28;20045;-82
2022/01/12 04:27:20;;;;;;;48.03;45.17;;;;;;;-3.85;100.00;102462.72;5067059;28;20052;-81
2022/01/12 04:29:48;;;;;;;50.83;47.72;;;;;;;-3.84;100.00;102467.00;5065876;28;20497;-80
2022/01/12 04:32:15;;;;;;;45.17;42.45;;;;;;;-3.73;100.00;102469.97;5067041;28;20044;-81
2022/01/12 04:34:42;;;;;;;50.97;47.95;;;;;;;-3.70;100.00;102465.47;5070222;28;20048;-82
2022/01/12 04:37:08;;;;;;;52.58;49.25;;;;;;;-3.82;100.00;102463.44;5070884;28;20052;-81
2022/01/12 04:39:35;;;;;;;48.17;45.17;;;;;;;-3.60;100.00;102475.41;5064183;28;20056;-80
2022/01/12 04:42:02;;;;;;;45.60;42.80;;;;;;;-3.16;100.00;102475.09;5066881;28;20515;-80
2022/01/12 04:44:29;;;;;;;49.00;45.90;;;;;;;-3.83;100.00;102479.09;5064906;28;20483;-80
2022/01/12 04:47:05;;;;;;;49.60;46.40;;;;;;;-3.48;100.00;102486.09;5066595;28;20056;-79
2022/01/12 04:49:47;;;;;;;48.58;45.45;;;;;;;-3.70;100.00;102486.22;5069121;28;20055;-80
2022/01/12 04:52:15;;;;;;;48.00;44.90;;;;;;;-2.80;100.00;102494.09;5070440;28;20056;-81
2022/01/12 04:54:42;;;;;;;44.72;41.85;;;;;;;-3.03;100.00;102491.78;5065254;28;20132;-80
2022/01/12 04:57:09;;;;;;;46.20;43.17;;;;;;;-3.56;100.00;102487.38;5069819;28;20110;-79
2022/01/12 04:59:42;;;;;;;44.67;41.88;;;;;;;-2.84;100.00;102502.97;5066807;28;20040;-80
2022/01/12 05:06:24;;;;;;;47.20;43.78;;;;;;;-3.53;100.00;102493.25;5065848;28;20053;-81
2022/01/12 05:07:57;;;;;;;46.05;43.03;;;;;;;-3.71;100.00;102505.34;5064832;28;20072;-80
2022/01/12 05:13:16;;;;;;;45.55;42.70;;;;;;;-3.79;100.00;102510.03;5047686;28;20056;-82
2022/01/12 05:15:42;;;;;;;57.30;53.03;;;;;;;-2.78;100.00;102507.03;5063422;28;20389;-80
2022/01/12 05:18:10;;;;;;;58.60;54.40;;;;;;;-3.66;100.00;102505.16;5075595;28;20105;-81
2022/01/12 05:20:38;;;;;;;78.32;71.45;;;;;;;-3.58;100.00;102497.81;5064442;28;20477;-81
2022/01/12 05:23:04;;;;;;;71.60;66.28;;;;;;;-3.50;100.00;102513.91;5067797;28;20057;-81
2022/01/12 05:25:31;;;;;;;70.35;65.22;;;;;;;-3.70;100.00;102508.78;5067545;28;20460;-82
2022/01/12 05:27:58;;;;;;;55.53;51.63;;;;;;;-3.64;100.00;102520.63;5065218;28;20112;-81
2022/01/12 05:30:25;;;;;;;63.63;58.78;;;;;;;-3.85;100.00;102515.50;5067459;28;20505;-80
2022/01/12 05:32:52;;;;;;;56.97;52.97;;;;;;;-3.70;100.00;102530.38;5063425;28;20443;-80
2022/01/12 05:35:20;;;;;;;54.55;50.50;;;;;;;-3.66;100.00;102531.13;5064037;28;20052;-80
2022/01/12 05:37:47;;;;;;;54.10;49.70;;;;;;;-3.79;100.00;102533.41;5064534;28;20044;-80
2022/01/12 05:40:16;;;;;;;54.00;49.90;;;;;;;-3.60;100.00;102537.75;5068281;28;20114;-81
2022/01/12 05:42:43;;;;;;;52.05;48.13;;;;;;;-3.71;100.00;102536.50;5069000;28;20083;-80
2022/01/12 05:45:11;;;;;;;53.65;49.80;;;;;;;-3.43;100.00;102529.22;5061244;28;20545;-80
2022/01/12 05:49:34;;;;;;;54.25;50.38;;;;;;;-3.61;100.00;102536.09;5072915;28;20097;-81
2022/01/12 05:50:29;;;;;;;49.25;45.78;;;;;;;-3.77;100.00;102546.34;5055663;28;20063;-80
2022/01/12 05:52:56;;;;;;;52.55;48.90;;;;;;;-3.77;100.00;102554.13;5066582;28;20455;-81
2022/01/12 05:55:22;;;;;;;65.70;61.30;;;;;;;-3.67;100.00;102546.75;5069814;28;20048;-79
2022/01/12 05:57:49;;;;;;;68.60;63.60;;;;;;;-3.57;100.00;102551.47;5066783;28;20045;-81
2022/01/12 06:00:18;;;;;;;68.13;62.95;;;;;;;-3.67;100.00;102557.97;5065152;28;20052;-80
2022/01/12 06:02:45;;;;;;;69.85;64.35;;;;;;;-3.10;100.00;102563.19;5061694;28;20057;-79
2022/01/12 06:05:14;;;;;;;65.70;61.35;;;;;;;-3.18;100.00;102563.53;5072778;28;20052;-81
2022/01/12 06:07:43;;;;;;;74.22;68.78;;;;;;;-3.54;100.00;102564.34;5063380;28;20190;-81
2022/01/12 06:10:10;;;;;;;72.70;67.20;;;;;;;-3.63;100.00;102569.06;5064544;28;20048;-79
2022/01/12 06:12:38;;;;;;;75.68;70.15;;;;;;;-3.41;100.00;102561.19;5064585;28;20404;-81
2022/01/12 06:15:05;;;;;;;73.68;68.15;;;;;;;-3.71;100.00;102572.88;5065841;28;20118;-78
2022/01/12 06:17:32;;;;;;;71.47;66.32;;;;;;;-3.14;100.00;102565.09;5064200;28;20129;-79
2022/01/12 06:19:59;;;;;;;68.38;63.35;;;;;;;-2.79;100.00;102580.75;5067981;28;20541;-81
2022/01/12 06:22:26;;;;;;;62.90;58.55;;;;;;;-2.78;100.00;102580.72;5067732;28;20110;-80
2022/01/12 06:24:56;;;;;;;65.72;61.08;;;;;;;-3.01;100.00;102587.00;5061976;28;20045;-81
2022/01/12 06:27:27;;;;;;;66.78;62.03;;;;;;;-3.17;100.00;102590.38;5064027;28;20044;-79
2022/01/12 06:30:04;;;;;;;69.88;64.60;;;;;;;-1.99;100.00;102595.06;5061464;28;20122;-80
2022/01/12 06:32:31;;;;;;;69.97;64.65;;;;;;;-3.02;100.00;102595.72;5060834;28;20072;-82
2022/01/12 06:34:58;;;;;;;71.75;66.25;;;;;;;-2.35;100.00;102611.59;5064553;28;20053;-80
2022/01/12 06:37:25;;;;;;;71.28;65.95;;;;;;;-2.80;100.00;102610.31;5067787;28;20052;-80
2022/01/12 06:39:52;;;;;;;62.55;58.10;;;;;;;-2.42;100.00;102611.06;5067717;28;20114;-80
2022/01/12 06:42:20;;;;;;;60.05;55.70;;;;;;;-1.78;100.00;102611.34;5064044;28;20048;-79
2022/01/12 06:44:48;;;;;;;60.47;56.08;;;;;;;-0.83;100.00;102607.06;5071383;28;20117;-81
2022/01/12 06:47:15;;;;;;;68.38;63.58;;;;;;;0.55;100.00;102612.06;5070080;28;20036;-80
2022/01/12 06:49:42;;;;;;;68.28;63.40;;;;;;;0.26;100.00;102616.44;5074449;28;20107;-78
2022/01/12 06:52:09;;;;;;;74.63;69.28;;;;;;;-0.83;100.00;102606.22;5067100;28;20550;-81
2022/01/12 06:54:38;;;;;;;73.03;67.53;;;;;;;-2.87;100.00;102617.56;5065222;28;20048;-81
2022/01/12 06:57:05;;;;;;;75.70;69.93;;;;;;;-3.04;100.00;102615.72;5068048;28;20053;-81
2022/01/12 06:59:33;;;;;;;73.72;68.47;;;;;;;-2.96;100.00;102615.38;5066420;28;20121;-81
2022/01/12 07:02:00;;;;;;;71.95;66.28;;;;;;;-3.11;100.00;102618.69;5069817;28;20074;-82
2022/01/12 07:04:26;;;;;;;78.43;71.95;;;;;;;-3.39;100.00;102616.50;5067569;28;20045;-81
2022/01/12 07:06:53;;;;;;;78.13;72.03;;;;;;;-3.26;100.00;102621.09;5065456;28;20110;-81
2022/01/12 07:09:20;;;;;;;73.35;67.60;;;;;;;-3.36;100.00;102626.75;5066271;28;20110;-79
2022/01/12 07:11:48;;;;;;;75.00;68.20;;;;;;;-3.39;100.00;102622.53;5067633;28;20101;-82
2022/01/12 07:14:15;;;;;;;73.07;67.43;;;;;;;-3.38;100.00;102631.19;5061533;28;20049;-81
2022/01/12 07:16:43;;;;;;;73.03;67.75;;;;;;;-3.44;100.00;102624.50;5070433;28;20049;-82
2022/01/12 07:19:10;;;;;;;71.95;66.55;;;;;;;-3.30;100.00;102634.28;5062820;28;20103;-80
2022/01/12 07:21:36;;;;;;;74.93;69.10;;;;;;;-3.35;100.00;102631.06;5065718;28;20044;-80
2022/01/12 07:24:04;;;;;;;78.53;72.95;;;;;;;-3.29;100.00;102636.81;5067223;28;20110;-78
2022/01/12 07:26:30;;;;;;;72.68;67.18;;;;;;;-3.23;100.00;102638.28;5064089;28;20479;-82
2022/01/12 07:28:57;;;;;;;77.00;70.57;;;;;;;-3.28;100.00;102641.09;5064932;28;20044;-80
2022/01/12 07:31:24;;;;;;;75.88;69.90;;;;;;;-3.26;100.00;102641.03;5068851;28;20100;-78
2022/01/12 07:33:54;;;;;;;81.18;74.50;;;;;;;-2.78;100.00;102644.91;5069472;28;20082;-78
2022/01/12 07:36:21;;;;;;;74.90;68.80;;;;;;;-2.95;100.00;102644.84;5069415;28;20135;-79
2022/01/12 07:38:50;;;;;;;74.53;68.53;;;;;;;-3.15;100.00;102645.72;5064102;28;20045;-80
2022/01/12 07:41:17;;;;;;;79.47;72.95;;;;;;;-3.19;100.00;102647.63;5066463;28;20056;-80
2022/01/12 07:43:44;;;;;;;73.18;67.20;;;;;;;-2.83;100.00;102649.47;5062700;28;20037;-80
2022/01/12 07:46:10;;;;;;;76.68;70.18;;;;;;;-3.19;100.00;102647.63;5063185;28;20110;-82
2022/01/12 07:48:37;;;;;;;77.13;70.97;;;;;;;-3.34;100.00;102646.56;5063155;28;20052;-81
2022/01/12 07:51:05;;;;;;;72.18;66.70;;;;;;;-3.11;100.00;102658.53;5070393;28;20439;-80
2022/01/12 07:53:32;;;;;;;73.07;67.55;;;;;;;-2.92;100.00;102649.88;5066124;28;20052;-81
2022/01/12 07:55:59;;;;;;;73.82;68.32;;;;;;;-3.13;100.00;102656.91;5068111;28;20045;-82
2022/01/12 07:58:26;;;;;;;78.40;71.97;;;;;;;-3.08;100.00;102648.00;5071363;28;20520;-78
2022/01/12 08:00:53;;;;;;;80.47;73.95;;;;;;;-2.97;100.00;102652.69;5074946;28;20547;-79
2022/01/12 08:03:20;;;;;;;79.63;72.85;;;;;;;-2.90;100.00;102653.28;5073925;28;20045;-82
2022/01/12 08:05:47;;;;;;;77.75;71.85;;;;;;;-2.85;100.00;102661.69;5075418;28;20128;-79
2022/01/12 08:08:16;;;;;;;71.40;65.97;;;;;;;-2.82;100.00;102658.94;5074011;28;20053;-80
2022/01/12 08:10:42;;;;;;;71.65;66.45;;;;;;;-2.80;100.00;102665.75;5065247;28;20056;-80
2022/01/12 08:13:09;;;;;;;74.40;68.72;;;;;;;-2.79;100.00;102657.03;5064751;28;20057;-81
2022/01/12 08:15:36;;;;;;;77.78;71.47;;;;;;;-3.00;100.00;102671.88;5071939;28;20052;-82
2022/01/12 08:18:03;;;;;;;80.95;74.43;;;;;;;-2.80;100.00;102670.97;5067492;28;20427;-80
2022/01/12 08:20:30;;;;;;;77.20;71.25;;;;;;;-2.49;100.00;102666.91;5074758;28;20041;-80
2022/01/12 08:22:58;;;;;;;79.00;72.95;;;;;;;-2.80;100.00;102672.72;5069440;28;20063;-82
2022/01/12 08:25:27;;;;;;;80.30;73.47;;;;;;;-2.84;100.00;102672.03;5064759;28;20101;-84
2022/01/12 08:27:54;;;;;;;78.90;72.53;;;;;;;-2.92;100.00;102675.91;5069877;28;20052;-78
2022/01/12 08:30:28;;;;;;;78.88;72.63;;;;;;;-2.76;100.00;102680.31;5064099;28;20439;-79
2022/01/12 08:32:56;;;;;;;79.47;72.93;;;;;;;-2.36;100.00;102674.97;5074664;28;20067;-79
2022/01/12 08:35:22;;;;;;;77.60;71.55;;;;;;;-2.49;100.00;102679.91;5084939;28;20052;-79
2022/01/12 08:37:50;;;;;;;77.45;71.05;;;;;;;-1.99;100.00;102686.22;5073755;28;20114;-82
2022/01/12 08:40:19;;;;;;;76.25;70.15;;;;;;;-2.40;100.00;102689.88;5064762;28;20056;-82
2022/01/12 08:42:48;;;;;;;73.93;68.45;;;;;;;-2.33;100.00;102685.22;5064906;28;20106;-82
2022/01/12 08:45:16;;;;;;;73.60;68.07;;;;;;;-2.41;100.00;102687.38;5068518;28;20469;-82
2022/01/12 08:47:43;;;;;;;75.50;69.88;;;;;;;-2.22;100.00;102684.72;5070459;28;20044;-80
2022/01/12 08:50:12;;;;;;;72.43;66.95;;;;;;;-1.35;100.00;102689.91;5074576;28;20060;-81
2022/01/12 08:52:44;;;;;;;76.90;71.03;;;;;;;-1.66;100.00;102687.13;5068526;28;20040;-78
2022/01/12 08:55:11;;;;;;;77.80;72.13;;;;;;;-1.81;100.00;102680.06;5068542;28;20492;-79
2022/01/12 08:57:38;;;;;;;74.53;68.82;;;;;;;-2.04;100.00;102685.59;5073660;28;20128;-79
2022/01/12 09:00:09;;;;;;;73.55;67.30;;;;;;;-2.27;100.00;102684.94;5065542;28;20045;-78
2022/01/12 09:02:35;;;;;;;77.25;71.25;;;;;;;-2.26;100.00;102688.41;5070240;28;20447;-78
2022/01/12 09:05:02;;;;;;;74.25;68.45;;;;;;;-1.94;100.00;102681.59;5082066;28;20476;-81
2022/01/12 09:07:29;;;;;;;75.70;69.80;;;;;;;-1.91;100.00;102684.88;5069330;28;20468;-82
2022/01/12 09:09:56;;;;;;;78.30;72.15;;;;;;;-1.88;100.00;102682.13;5068831;28;20052;-81
2022/01/12 09:12:23;;;;;;;77.90;71.82;;;;;;;-1.88;100.00;102689.94;5075201;28;20053;-82
2022/01/12 09:14:50;;;;;;;83.65;76.45;;;;;;;-1.99;100.00;102681.84;5068203;28;20101;-82
2022/01/12 09:17:20;;;;;;;78.45;71.85;;;;;;;-1.55;100.00;102686.53;5075374;28;20404;-81
2022/01/12 09:19:47;;;;;;;79.38;72.95;;;;;;;-1.95;100.00;102672.94;5070843;28;20476;-78
2022/01/12 09:22:14;;;;;;;78.57;71.78;;;;;;;-1.74;100.00;102691.88;5069372;28;20049;-79
2022/01/12 09:24:42;;;;;;;79.82;73.43;;;;;;;-1.86;100.00;102677.69;5072681;28;20446;-78
2022/01/12 09:27:09;;;;;;;82.35;75.82;;;;;;;-1.79;100.00;102682.59;5075451;28;20443;-78
2022/01/12 09:29:36;;;;;;;78.40;72.38;;;;;;;-1.80;100.00;102683.53;5069206;28;20425;-78
2022/01/12 09:32:03;;;;;;;75.65;70.03;;;;;;;-1.62;100.00;102680.81;5071956;28;20449;-79
2022/01/12 09:34:31;;;;;;;77.78;71.70;;;;;;;-1.39;100.00;102686.63;5069241;28;20101;-78
2022/01/12 09:36:58;;;;;;;73.50;68.13;;;;;;;-1.76;100.00;102680.66;5070726;28;20420;-81
2022/01/12 09:39:24;;;;;;;76.97;71.13;;;;;;;-1.90;100.00;102681.38;5065778;28;20045;-79
2022/01/12 09:41:51;;;;;;;81.45;75.25;;;;;;;-1.74;100.00;102680.59;5064099;28;20101;-82
2022/01/12 09:44:18;;;;;;;78.68;72.43;;;;;;;-1.59;100.00;102679.81;5066864;28;20052;-82
2022/01/12 09:46:45;;;;;;;81.93;75.57;;;;;;;-1.81;100.00;102679.25;5062326;28;20469;-78
2022/01/12 09:49:12;;;;;;;83.15;76.30;;;;;;;-1.94;100.00;102679.00;5075464;28;20467;-82
2022/01/12 09:51:40;;;;;;;84.50;77.95;;;;;;;-1.89;100.00;102670.03;5068889;28;20048;-80
2022/01/12 09:54:07;;;;;;;81.18;74.47;;;;;;;-2.08;100.00;102669.28;5071914;28;20476;-83
2022/01/12 09:56:34;;;;;;;90.38;82.07;;;;;;;-2.04;100.00;102669.97;5068719;28;20048;-82
2022/01/12 09:59:02;;;;;;;83.28;76.38;;;;;;;-1.83;100.00;102671.50;5072914;28;20113;-78
2022/01/12 10:01:31;;;;;;;81.60;74.93;;;;;;;-1.72;100.00;102666.59;5072274;28;20052;-81
2022/01/12 10:04:17;;;;;;;78.95;72.88;;;;;;;-1.63;100.00;102668.72;5074445;28;20078;-82
2022/01/12 10:06:50;;;;;;;80.25;74.07;;;;;;;-1.46;100.00;102667.00;5070864;28;20048;-81
2022/01/12 10:09:22;;;;;;;80.10;73.80;;;;;;;-1.69;100.00;102676.00;5072447;28;20086;-82
2022/01/12 10:11:53;;;;;;;79.25;72.95;;;;;;;-1.36;100.00;102667.34;5064077;28;20461;-81
2022/01/12 10:14:21;;;;;;;82.80;76.53;;;;;;;-1.62;100.00;102657.38;5062007;28;20366;-78
2022/01/12 10:16:54;;;;;;;84.28;77.85;;;;;;;-1.32;100.00;102663.66;5066513;28;20611;-82
2022/01/12 10:19:27;;;;;;;;;;;;;;;-1.46;100.00;102656.56;5072223;28;20117;-83
2022/01/12 10:21:56;;;;;;;81.45;75.15;;;;;;;-1.42;100.00;102653.72;5069523;28;20337;-81
2022/01/12 10:24:22;;;;;;;83.05;76.78;;;;;;;-1.46;100.00;102660.00;5068600;28;20057;-81
2022/01/12 10:26:51;;;;;;;84.40;77.78;;;;;;;-1.45;100.00;102656.50;5063347;28;20493;-81
2022/01/12 10:29:20;;;;;;;81.45;75.15;;;;;;;-1.35;100.00;102656.00;5070891;28;20052;-81
2022/01/12 10:31:53;;;;;;;92.50;85.10;;;;;;;-1.38;100.00;102647.41;5065743;28;20094;-83
2022/01/12 10:34:20;;;;;;;;;;;;;;;-1.37;100.00;102658.69;5067704;28;20049;-79
2022/01/12 10:36:48;;;;;;;92.43;84.93;;;;;;;-1.39;100.00;102653.56;5067376;28;19985;-79
2022/01/12 10:39:17;;;;;;;92.70;85.60;;;;;;;-1.09;100.00;102652.88;5066690;28;20048;-81
2022/01/12 10:41:56;;;;;;;91.63;84.15;;;;;;;-1.29;100.00;102651.31;5067409;28;20159;-79
2022/01/12 10:44:24;;;;;;;82.10;76.00;;;;;;;-1.26;100.00;102652.91;5065890;28;20487;-78
2022/01/12 10:46:51;;;;;;;92.13;84.70;;;;;;;-1.27;100.00;102646.88;5061321;28;20053;-79
2022/01/12 10:49:21;;;;;;;87.47;80.60;;;;;;;-1.14;100.00;102648.81;5069214;28;20044;-81
2022/01/12 10:51:56;;;;;;;81.93;75.95;;;;;;;-1.09;100.00;102657.22;5071131;28;20044;-79
2022/01/12 10:54:24;;;;;;;85.32;78.95;;;;;;;-1.26;100.00;102653.75;5066084;28;20117;-83
2022/01/12 10:56:51;;;;;;;82.15;75.82;;;;;;;-1.01;100.00;102649.81;5068588;28;20127;-82
2022/01/12 10:59:19;;;;;;;81.85;75.80;;;;;;;-1.06;100.00;102644.88;5068032;28;20045;-79
2022/01/12 11:01:46;;;;;;;81.20;75.10;;;;;;;-1.18;100.00;102651.59;5062283;28;20512;-82
2022/01/12 11:04:13;;;;;;;79.35;73.45;;;;;;;-1.00;100.00;102651.50;5063557;28;20125;-82
2022/01/12 11:06:40;;;;;;;86.85;79.90;;;;;;;-1.10;100.00;102645.09;5067301;28;20049;-79
2022/01/12 11:09:07;;;;;;;82.90;76.45;;;;;;;-0.99;100.00;102641.00;5065540;28;20048;-79
2022/01/12 11:11:35;;;;;;;85.82;79.43;;;;;;;-1.02;100.00;102641.16;5068883;28;20048;-82
2022/01/12 11:14:03;;;;;;;82.13;75.93;;;;;;;-0.79;100.00;102642.50;5069415;28;20139;-81
2022/01/12 11:16:30;;;;;;;83.88;77.28;;;;;;;-0.82;100.00;102636.59;5071301;28;20052;-82
2022/01/12 11:18:58;;;;;;;85.80;79.68;;;;;;;-0.95;100.00;102646.88;5072064;28;20054;-80
2022/01/12 11:21:33;;;;;;;77.22;71.63;;;;;;;-1.14;100.00;102644.44;5069765;28;20098;-79
2022/01/12 11:24:02;;;;;;;81.72;75.75;;;;;;;-1.16;100.00;102656.69;5063602;28;20106;-82
2022/01/12 11:26:30;;;;;;;82.97;76.75;;;;;;;-0.96;100.00;102653.88;5064554;28;20452;-81
2022/01/12 11:29:00;;;;;;;80.97;74.97;;;;;;;-1.05;100.00;102650.94;5074118;28;20060;-84
2022/01/12 11:31:28;;;;;;;83.22;76.57;;;;;;;-0.86;100.00;102648.16;5063317;28;20045;-79
2022/01/12 11:33:55;;;;;;;83.03;76.68;;;;;;;-0.85;100.00;102655.88;5067444;28;20049;-80
2022/01/12 11:36:25;;;;;;;87.28;80.05;;;;;;;-1.07;100.00;102653.59;5068178;28;20049;-82
2022/01/12 11:38:59;;;;;;;84.30;77.68;;;;;;;-0.77;100.00;102647.63;5069133;28;20049;-79
2022/01/12 11:41:28;;;;;;;86.85;80.10;;;;;;;-0.88;100.00;102652.59;5072800;28;20053;-81
2022/01/12 11:43:59;;;;;;;90.93;83.60;;;;;;;-0.77;100.00;102643.25;5065330;28;20053;-83
2022/01/12 11:46:29;;;;;;;91.20;84.05;;;;;;;-0.88;100.00;102644.78;5062103;28;20106;-78
2022/01/12 11:48:57;;;;;;;82.82;76.10;;;;;;;-0.41;100.00;102660.41;5070740;28;20052;-83
2022/01/12 11:51:34;;;;;;;90.50;82.88;;;;;;;-0.48;100.00;102646.03;5068763;28;20465;-80
2022/01/12 11:54:07;;;;;;;89.75;82.45;;;;;;;-0.68;100.00;102648.91;5062666;28;20053;-83
2022/01/12 11:56:33;;;;;;;89.57;82.15;;;;;;;-0.73;100.00;102655.22;5068674;28;20083;-83
2022/01/12 11:59:08;;;;;;;84.82;78.18;;;;;;;-0.55;100.00;102653.34;5075695;28;20460;-80
2022/01/12 12:01:43;;;;;;;118.70;107.22;;;;;;;-0.89;100.00;102649.16;5069264;28;20057;-78
2022/01/12 12:04:21;;;;;;;84.20;77.63;;;;;;;-0.84;100.00;102644.53;5068575;28;20052;-78